sensor_id;sensor_type;location;lat;lon;timestamp;temperature;humidity
74822;DHT22;63353;48.702;8.884;2023-07-09T00:00:03;19.50;99.90
74822;DHT22;63353;48.702;8.884;2023-07-09T00:02:48;19.50;99.90
74822;DHT22;63353;48.702;8.884;2023-07-09T00:05:16;19.50;99.90
74822;DHT22;63353;48.702;8.884;2023-07-09T00:07:43;19.50;99.90
74822;DHT22;63353;48.702;8.884;2023-07-09T00:10:29;19.50;99.90
74822;DHT22;63353;48.702;8.884;2023-07-09T00:13:02;19.60;99.90
74822;DHT22;63353;48.702;8.884;2023-07-09T00:15:34;19.50;99.90
74822;DHT22;63353;48.702;8.884;2023-07-09T00:17:59;19.50;99.90
74822;DHT22;63353;48.702;8.884;2023-07-09T00:20:25;19.50;99.90
74822;DHT22;63353;48.702;8.884;2023-07-09T00:22:51;19.50;99.90
74822;DHT22;63353;48.702;8.884;2023-07-09T00:25:19;19.50;99.90
74822;DHT22;63353;48.702;8.884;2023-07-09T00:27:46;19.50;99.90
74822;DHT22;63353;48.702;8.884;2023-07-09T00:30:34;19.50;99.90
74822;DHT22;63353;48.702;8.884;2023-07-09T00:33:02;19.40;99.90
74822;DHT22;63353;48.702;8.884;2023-07-09T00:35:32;19.20;99.90
74822;DHT22;63353;48.702;8.884;2023-07-09T00:37:57;19.10;99.90
74822;DHT22;63353;48.702;8.884;2023-07-09T00:40:26;19.00;99.90
74822;DHT22;63353;48.702;8.884;2023-07-09T00:42:53;19.00;99.90
74822;DHT22;63353;48.702;8.884;2023-07-09T00:45:30;18.90;99.90
74822;DHT22;63353;48.702;8.884;2023-07-09T00:48:12;18.80;99.90
74822;DHT22;63353;48.702;8.884;2023-07-09T00:50:46;18.80;99.90
74822;DHT22;63353;48.702;8.884;2023-07-09T00:53:26;18.70;99.90
74822;DHT22;63353;48.702;8.884;2023-07-09T00:56:06;18.60;99.90
74822;DHT22;63353;48.702;8.884;2023-07-09T00:58:37;18.50;99.90
74822;DHT22;63353;48.702;8.884;2023-07-09T01:01:07;18.50;99.90
74822;DHT22;63353;48.702;8.884;2023-07-09T01:03:39;18.50;99.90
74822;DHT22;63353;48.702;8.884;2023-07-09T01:06:27;18.50;99.90
74822;DHT22;63353;48.702;8.884;2023-07-09T01:08:55;18.60;99.90
74822;DHT22;63353;48.702;8.884;2023-07-09T01:11:22;18.70;99.90
74822;DHT22;63353;48.702;8.884;2023-07-09T01:13:54;18.90;99.90
74822;DHT22;63353;48.702;8.884;2023-07-09T01:16:29;19.00;99.90
74822;DHT22;63353;48.702;8.884;2023-07-09T01:18:55;19.00;99.90
74822;DHT22;63353;48.702;8.884;2023-07-09T01:21:27;19.00;99.90
74822;DHT22;63353;48.702;8.884;2023-07-09T01:24:13;18.90;99.90
74822;DHT22;63353;48.702;8.884;2023-07-09T01:26:45;18.70;99.90
74822;DHT22;63353;48.702;8.884;2023-07-09T01:29:12;18.60;99.90
74822;DHT22;63353;48.702;8.884;2023-07-09T01:31:37;18.60;99.90
74822;DHT22;63353;48.702;8.884;2023-07-09T01:34:06;18.60;99.90
74822;DHT22;63353;48.702;8.884;2023-07-09T01:36:32;18.50;99.90
74822;DHT22;63353;48.702;8.884;2023-07-09T01:39:09;18.70;99.90
74822;DHT22;63353;48.702;8.884;2023-07-09T01:41:38;18.70;99.90
74822;DHT22;63353;48.702;8.884;2023-07-09T01:44:04;18.60;99.90
74822;DHT22;63353;48.702;8.884;2023-07-09T01:46:36;18.50;99.90
74822;DHT22;63353;48.702;8.884;2023-07-09T01:49:04;18.40;99.90
74822;DHT22;63353;48.702;8.884;2023-07-09T01:51:35;18.30;99.90
74822;DHT22;63353;48.702;8.884;2023-07-09T01:54:07;18.30;99.90
74822;DHT22;63353;48.702;8.884;2023-07-09T01:56:38;18.20;99.90
74822;DHT22;63353;48.702;8.884;2023-07-09T01:59:16;18.20;99.90
74822;DHT22;63353;48.702;8.884;2023-07-09T02:01:45;18.10;99.90
74822;DHT22;63353;48.702;8.884;2023-07-09T02:04:10;18.10;99.90
74822;DHT22;63353;48.702;8.884;2023-07-09T02:06:39;18.00;99.90
74822;DHT22;63353;48.702;8.884;2023-07-09T02:09:04;18.00;99.90
74822;DHT22;63353;48.702;8.884;2023-07-09T02:11:30;17.90;99.90
74822;DHT22;63353;48.702;8.884;2023-07-09T02:13:59;17.80;99.90
74822;DHT22;63353;48.702;8.884;2023-07-09T02:16:27;17.70;99.90
74822;DHT22;63353;48.702;8.884;2023-07-09T02:18:58;17.70;99.90
74822;DHT22;63353;48.702;8.884;2023-07-09T02:21:24;17.70;99.90
74822;DHT22;63353;48.702;8.884;2023-07-09T02:24:01;17.70;99.90
74822;DHT22;63353;48.702;8.884;2023-07-09T02:26:29;17.60;99.90
74822;DHT22;63353;48.702;8.884;2023-07-09T02:29:00;17.60;99.90
74822;DHT22;63353;48.702;8.884;2023-07-09T02:31:26;17.60;99.90
74822;DHT22;63353;48.702;8.884;2023-07-09T02:34:01;17.50;99.90
74822;DHT22;63353;48.702;8.884;2023-07-09T02:36:34;17.50;99.90
74822;DHT22;63353;48.702;8.884;2023-07-09T02:39:02;17.50;99.90
74822;DHT22;63353;48.702;8.884;2023-07-09T02:41:31;17.50;99.90
74822;DHT22;63353;48.702;8.884;2023-07-09T02:44:03;17.40;99.90
74822;DHT22;63353;48.702;8.884;2023-07-09T02:46:29;17.40;99.90
74822;DHT22;63353;48.702;8.884;2023-07-09T02:48:55;17.30;99.90
74822;DHT22;63353;48.702;8.884;2023-07-09T02:51:27;17.30;99.90
74822;DHT22;63353;48.702;8.884;2023-07-09T02:54:03;17.20;99.90
74822;DHT22;63353;48.702;8.884;2023-07-09T02:56:31;17.10;99.90
74822;DHT22;63353;48.702;8.884;2023-07-09T02:59:00;17.10;99.90
74822;DHT22;63353;48.702;8.884;2023-07-09T03:01:35;17.00;99.90
74822;DHT22;63353;48.702;8.884;2023-07-09T03:04:01;17.00;99.90
74822;DHT22;63353;48.702;8.884;2023-07-09T03:06:35;17.00;99.90
74822;DHT22;63353;48.702;8.884;2023-07-09T03:09:02;16.90;99.90
74822;DHT22;63353;48.702;8.884;2023-07-09T03:11:30;16.80;99.90
74822;DHT22;63353;48.702;8.884;2023-07-09T03:14:02;16.90;99.90
74822;DHT22;63353;48.702;8.884;2023-07-09T03:16:34;16.80;99.90
74822;DHT22;63353;48.702;8.884;2023-07-09T03:19:00;16.80;99.90
74822;DHT22;63353;48.702;8.884;2023-07-09T03:21:35;16.80;99.90
74822;DHT22;63353;48.702;8.884;2023-07-09T03:24:01;16.80;99.90
74822;DHT22;63353;48.702;8.884;2023-07-09T03:26:27;16.70;99.90
74822;DHT22;63353;48.702;8.884;2023-07-09T03:28:54;16.70;99.90
74822;DHT22;63353;48.702;8.884;2023-07-09T03:31:22;16.60;99.90
74822;DHT22;63353;48.702;8.884;2023-07-09T03:33:50;16.60;99.90
74822;DHT22;63353;48.702;8.884;2023-07-09T03:36:19;16.60;99.90
74822;DHT22;63353;48.702;8.884;2023-07-09T03:38:54;16.60;99.90
74822;DHT22;63353;48.702;8.884;2023-07-09T03:41:23;16.70;99.90
74822;DHT22;63353;48.702;8.884;2023-07-09T03:43:52;16.70;99.90
74822;DHT22;63353;48.702;8.884;2023-07-09T03:46:24;16.80;99.90
74822;DHT22;63353;48.702;8.884;2023-07-09T03:48:50;16.80;99.90
74822;DHT22;63353;48.702;8.884;2023-07-09T03:51:16;16.80;99.90
74822;DHT22;63353;48.702;8.884;2023-07-09T03:53:42;16.80;99.90
74822;DHT22;63353;48.702;8.884;2023-07-09T03:56:08;16.80;99.90
74822;DHT22;63353;48.702;8.884;2023-07-09T03:58:35;16.80;99.90
74822;DHT22;63353;48.702;8.884;2023-07-09T04:01:01;16.80;99.90
74822;DHT22;63353;48.702;8.884;2023-07-09T04:03:26;16.80;99.90
74822;DHT22;63353;48.702;8.884;2023-07-09T04:05:55;16.80;99.90
74822;DHT22;63353;48.702;8.884;2023-07-09T04:08:20;16.90;99.90
74822;DHT22;63353;48.702;8.884;2023-07-09T04:10:54;16.90;99.90
74822;DHT22;63353;48.702;8.884;2023-07-09T04:13:20;17.00;99.90
74822;DHT22;63353;48.702;8.884;2023-07-09T04:15:46;17.00;99.90
74822;DHT22;63353;48.702;8.884;2023-07-09T04:18:12;17.00;99.90
74822;DHT22;63353;48.702;8.884;2023-07-09T04:20:37;17.00;99.90
74822;DHT22;63353;48.702;8.884;2023-07-09T04:23:03;17.10;99.90
74822;DHT22;63353;48.702;8.884;2023-07-09T04:25:29;17.10;99.90
74822;DHT22;63353;48.702;8.884;2023-07-09T04:27:55;17.20;99.90
74822;DHT22;63353;48.702;8.884;2023-07-09T04:30:21;17.20;99.90
74822;DHT22;63353;48.702;8.884;2023-07-09T04:32:47;17.20;99.90
74822;DHT22;63353;48.702;8.884;2023-07-09T04:35:14;17.30;99.90
74822;DHT22;63353;48.702;8.884;2023-07-09T04:37:40;17.40;99.90
74822;DHT22;63353;48.702;8.884;2023-07-09T04:40:08;17.50;99.90
74822;DHT22;63353;48.702;8.884;2023-07-09T04:42:36;17.80;99.90
74822;DHT22;63353;48.702;8.884;2023-07-09T04:45:03;18.00;99.90
74822;DHT22;63353;48.702;8.884;2023-07-09T04:47:29;18.00;99.90
74822;DHT22;63353;48.702;8.884;2023-07-09T04:49:55;18.10;99.90
74822;DHT22;63353;48.702;8.884;2023-07-09T04:52:20;18.10;99.90
74822;DHT22;63353;48.702;8.884;2023-07-09T04:54:47;18.10;99.90
74822;DHT22;63353;48.702;8.884;2023-07-09T04:57:15;18.20;99.90
74822;DHT22;63353;48.702;8.884;2023-07-09T04:59:41;18.20;99.90
74822;DHT22;63353;48.702;8.884;2023-07-09T05:02:07;18.30;99.90
74822;DHT22;63353;48.702;8.884;2023-07-09T05:04:33;18.60;99.90
74822;DHT22;63353;48.702;8.884;2023-07-09T05:06:59;19.00;99.90
74822;DHT22;63353;48.702;8.884;2023-07-09T05:09:25;19.20;99.90
74822;DHT22;63353;48.702;8.884;2023-07-09T05:11:51;19.50;99.90
74822;DHT22;63353;48.702;8.884;2023-07-09T05:14:17;19.70;99.90
74822;DHT22;63353;48.702;8.884;2023-07-09T05:16:44;19.80;99.90
74822;DHT22;63353;48.702;8.884;2023-07-09T05:19:11;19.80;99.90
74822;DHT22;63353;48.702;8.884;2023-07-09T05:21:36;19.90;99.90
74822;DHT22;63353;48.702;8.884;2023-07-09T05:24:03;19.90;99.90
74822;DHT22;63353;48.702;8.884;2023-07-09T05:26:29;20.00;99.90
74822;DHT22;63353;48.702;8.884;2023-07-09T05:28:54;20.10;99.90
74822;DHT22;63353;48.702;8.884;2023-07-09T05:31:22;20.20;99.90
74822;DHT22;63353;48.702;8.884;2023-07-09T05:33:48;20.30;99.90
74822;DHT22;63353;48.702;8.884;2023-07-09T05:36:13;20.40;99.90
74822;DHT22;63353;48.702;8.884;2023-07-09T05:38:44;20.50;99.90
74822;DHT22;63353;48.702;8.884;2023-07-09T05:41:12;20.60;99.90
74822;DHT22;63353;48.702;8.884;2023-07-09T05:43:37;20.60;99.90
74822;DHT22;63353;48.702;8.884;2023-07-09T05:46:05;20.70;99.90
74822;DHT22;63353;48.702;8.884;2023-07-09T05:48:31;20.80;99.90
74822;DHT22;63353;48.702;8.884;2023-07-09T05:50:57;20.80;99.90
74822;DHT22;63353;48.702;8.884;2023-07-09T05:53:23;20.90;99.90
74822;DHT22;63353;48.702;8.884;2023-07-09T05:55:52;21.10;99.90
74822;DHT22;63353;48.702;8.884;2023-07-09T05:58:18;21.20;99.90
74822;DHT22;63353;48.702;8.884;2023-07-09T06:00:43;21.30;99.90
74822;DHT22;63353;48.702;8.884;2023-07-09T06:03:10;21.60;99.90
74822;DHT22;63353;48.702;8.884;2023-07-09T06:05:36;21.80;99.90
74822;DHT22;63353;48.702;8.884;2023-07-09T06:08:03;22.10;99.90
74822;DHT22;63353;48.702;8.884;2023-07-09T06:10:29;22.30;99.90
74822;DHT22;63353;48.702;8.884;2023-07-09T06:12:56;22.50;99.90
74822;DHT22;63353;48.702;8.884;2023-07-09T06:15:24;22.70;99.90
74822;DHT22;63353;48.702;8.884;2023-07-09T06:17:50;22.90;99.90
74822;DHT22;63353;48.702;8.884;2023-07-09T06:20:16;23.00;99.90
74822;DHT22;63353;48.702;8.884;2023-07-09T06:22:41;23.20;99.90
74822;DHT22;63353;48.702;8.884;2023-07-09T06:25:07;23.50;99.90
74822;DHT22;63353;48.702;8.884;2023-07-09T06:27:33;23.70;99.90
74822;DHT22;63353;48.702;8.884;2023-07-09T06:29:59;23.90;99.90
74822;DHT22;63353;48.702;8.884;2023-07-09T06:32:24;24.20;99.90
74822;DHT22;63353;48.702;8.884;2023-07-09T06:34:50;24.40;99.90
74822;DHT22;63353;48.702;8.884;2023-07-09T06:37:16;24.60;99.90
74822;DHT22;63353;48.702;8.884;2023-07-09T06:39:41;24.80;99.90
74822;DHT22;63353;48.702;8.884;2023-07-09T06:42:07;24.90;99.90
74822;DHT22;63353;48.702;8.884;2023-07-09T06:44:33;25.10;99.90
74822;DHT22;63353;48.702;8.884;2023-07-09T06:46:58;25.30;99.90
74822;DHT22;63353;48.702;8.884;2023-07-09T06:49:25;25.50;99.90
74822;DHT22;63353;48.702;8.884;2023-07-09T06:51:51;25.70;99.90
74822;DHT22;63353;48.702;8.884;2023-07-09T06:54:17;26.00;99.90
74822;DHT22;63353;48.702;8.884;2023-07-09T06:56:42;26.10;99.90
74822;DHT22;63353;48.702;8.884;2023-07-09T06:59:08;26.30;99.90
74822;DHT22;63353;48.702;8.884;2023-07-09T07:01:35;26.50;99.90
74822;DHT22;63353;48.702;8.884;2023-07-09T07:04:01;26.80;99.90
74822;DHT22;63353;48.702;8.884;2023-07-09T07:06:26;27.00;99.90
74822;DHT22;63353;48.702;8.884;2023-07-09T07:08:52;27.30;99.90
74822;DHT22;63353;48.702;8.884;2023-07-09T07:11:18;27.30;99.90
74822;DHT22;63353;48.702;8.884;2023-07-09T07:13:43;27.40;99.90
74822;DHT22;63353;48.702;8.884;2023-07-09T07:16:11;27.60;99.90
74822;DHT22;63353;48.702;8.884;2023-07-09T07:18:41;27.80;99.90
74822;DHT22;63353;48.702;8.884;2023-07-09T07:21:15;27.90;99.90
74822;DHT22;63353;48.702;8.884;2023-07-09T07:23:41;28.30;99.90
74822;DHT22;63353;48.702;8.884;2023-07-09T07:26:07;28.40;99.90
74822;DHT22;63353;48.702;8.884;2023-07-09T07:28:34;28.40;99.90
74822;DHT22;63353;48.702;8.884;2023-07-09T07:31:03;28.80;99.90
74822;DHT22;63353;48.702;8.884;2023-07-09T07:33:31;28.90;99.90
74822;DHT22;63353;48.702;8.884;2023-07-09T07:36:00;29.10;99.90
74822;DHT22;63353;48.702;8.884;2023-07-09T07:38:26;29.30;99.90
74822;DHT22;63353;48.702;8.884;2023-07-09T07:41:01;29.40;99.90
74822;DHT22;63353;48.702;8.884;2023-07-09T07:43:27;29.60;99.90
74822;DHT22;63353;48.702;8.884;2023-07-09T07:45:56;29.70;99.90
74822;DHT22;63353;48.702;8.884;2023-07-09T07:48:25;29.80;99.90
74822;DHT22;63353;48.702;8.884;2023-07-09T07:51:01;30.00;99.90
74822;DHT22;63353;48.702;8.884;2023-07-09T07:53:28;30.20;99.90
74822;DHT22;63353;48.702;8.884;2023-07-09T07:55:58;30.40;99.90
74822;DHT22;63353;48.702;8.884;2023-07-09T07:58:24;30.50;99.90
74822;DHT22;63353;48.702;8.884;2023-07-09T08:00:56;30.70;99.90
74822;DHT22;63353;48.702;8.884;2023-07-09T08:03:25;30.90;99.90
74822;DHT22;63353;48.702;8.884;2023-07-09T08:05:51;31.00;99.90
74822;DHT22;63353;48.702;8.884;2023-07-09T08:08:17;31.20;99.90
74822;DHT22;63353;48.702;8.884;2023-07-09T08:10:43;31.10;99.90
74822;DHT22;63353;48.702;8.884;2023-07-09T08:13:09;31.30;99.90
74822;DHT22;63353;48.702;8.884;2023-07-09T08:15:35;31.50;99.90
74822;DHT22;63353;48.702;8.884;2023-07-09T08:18:01;31.70;99.90
74822;DHT22;63353;48.702;8.884;2023-07-09T08:20:32;31.90;99.90
74822;DHT22;63353;48.702;8.884;2023-07-09T08:23:01;32.00;99.60
74822;DHT22;63353;48.702;8.884;2023-07-09T08:25:27;32.20;99.60
74822;DHT22;63353;48.702;8.884;2023-07-09T08:27:56;32.50;97.60
74822;DHT22;63353;48.702;8.884;2023-07-09T08:30:33;32.70;98.80
74822;DHT22;63353;48.702;8.884;2023-07-09T08:32:59;32.80;97.00
74822;DHT22;63353;48.702;8.884;2023-07-09T08:35:29;32.90;96.20
74822;DHT22;63353;48.702;8.884;2023-07-09T08:37:57;33.10;94.30
74822;DHT22;63353;48.702;8.884;2023-07-09T08:40:23;32.90;92.20
74822;DHT22;63353;48.702;8.884;2023-07-09T08:42:53;32.80;93.20
74822;DHT22;63353;48.702;8.884;2023-07-09T08:46:10;33.00;94.80
74822;DHT22;63353;48.702;8.884;2023-07-09T08:48:44;33.20;94.10
74822;DHT22;63353;48.702;8.884;2023-07-09T08:51:22;33.20;93.00
74822;DHT22;63353;48.702;8.884;2023-07-09T08:53:57;33.40;92.10
74822;DHT22;63353;48.702;8.884;2023-07-09T08:56:23;33.70;90.80
74822;DHT22;63353;48.702;8.884;2023-07-09T08:58:50;33.50;88.80
74822;DHT22;63353;48.702;8.884;2023-07-09T09:01:44;33.60;90.00
74822;DHT22;63353;48.702;8.884;2023-07-09T09:04:15;33.40;86.50
74822;DHT22;63353;48.702;8.884;2023-07-09T09:06:48;33.40;84.00
74822;DHT22;63353;48.702;8.884;2023-07-09T09:09:40;32.60;84.70
74822;DHT22;63353;48.702;8.884;2023-07-09T09:12:27;32.80;81.70
74822;DHT22;63353;48.702;8.884;2023-07-09T09:14:58;32.90;84.10
74822;DHT22;63353;48.702;8.884;2023-07-09T09:17:25;33.20;82.70
74822;DHT22;63353;48.702;8.884;2023-07-09T09:20:00;33.50;79.70
74822;DHT22;63353;48.702;8.884;2023-07-09T09:22:48;33.50;79.40
74822;DHT22;63353;48.702;8.884;2023-07-09T09:25:27;33.40;80.30
74822;DHT22;63353;48.702;8.884;2023-07-09T09:27:54;33.50;81.70
74822;DHT22;63353;48.702;8.884;2023-07-09T09:30:22;33.60;82.30
74822;DHT22;63353;48.702;8.884;2023-07-09T09:32:54;33.80;82.40
74822;DHT22;63353;48.702;8.884;2023-07-09T09:35:32;34.00;79.30
74822;DHT22;63353;48.702;8.884;2023-07-09T09:38:09;33.90;80.30
74822;DHT22;63353;48.702;8.884;2023-07-09T09:40:36;34.10;82.20
74822;DHT22;63353;48.702;8.884;2023-07-09T09:43:02;33.70;78.30
74822;DHT22;63353;48.702;8.884;2023-07-09T09:45:37;34.10;76.90
74822;DHT22;63353;48.702;8.884;2023-07-09T09:50:43;34.40;77.70
74822;DHT22;63353;48.702;8.884;2023-07-09T09:53:22;34.90;76.80
74822;DHT22;63353;48.702;8.884;2023-07-09T09:55:51;35.10;77.70
74822;DHT22;63353;48.702;8.884;2023-07-09T09:58:17;35.30;76.20
74822;DHT22;63353;48.702;8.884;2023-07-09T10:00:51;35.40;76.00
74822;DHT22;63353;48.702;8.884;2023-07-09T10:03:17;35.60;74.30
74822;DHT22;63353;48.702;8.884;2023-07-09T10:05:56;35.80;70.80
74822;DHT22;63353;48.702;8.884;2023-07-09T10:11:49;34.10;71.30
74822;DHT22;63353;48.702;8.884;2023-07-09T10:25:29;37.00;67.50
74822;DHT22;63353;48.702;8.884;2023-07-09T10:30:59;37.20;62.50
74822;DHT22;63353;48.702;8.884;2023-07-09T10:41:36;36.10;63.00
74822;DHT22;63353;48.702;8.884;2023-07-09T10:44:16;36.10;61.30
74822;DHT22;63353;48.702;8.884;2023-07-09T10:46:51;35.20;61.20
74822;DHT22;63353;48.702;8.884;2023-07-09T10:49:21;35.60;62.80
74822;DHT22;63353;48.702;8.884;2023-07-09T10:52:00;36.10;61.50
74822;DHT22;63353;48.702;8.884;2023-07-09T11:00:02;36.00;63.00
74822;DHT22;63353;48.702;8.884;2023-07-09T11:02:31;36.20;65.10
74822;DHT22;63353;48.702;8.884;2023-07-09T11:04:58;36.90;63.70
74822;DHT22;63353;48.702;8.884;2023-07-09T11:07:32;37.30;56.60
74822;DHT22;63353;48.702;8.884;2023-07-09T11:10:01;36.50;58.60
74822;DHT22;63353;48.702;8.884;2023-07-09T11:12:35;36.30;57.10
74822;DHT22;63353;48.702;8.884;2023-07-09T11:17:32;36.50;61.00
74822;DHT22;63353;48.702;8.884;2023-07-09T11:20:06;36.80;60.90
74822;DHT22;63353;48.702;8.884;2023-07-09T11:22:40;36.90;60.80
74822;DHT22;63353;48.702;8.884;2023-07-09T11:25:12;37.30;57.20
74822;DHT22;63353;48.702;8.884;2023-07-09T11:27:52;37.50;60.20
74822;DHT22;63353;48.702;8.884;2023-07-09T11:30:28;38.00;57.60
74822;DHT22;63353;48.702;8.884;2023-07-09T11:33:04;38.20;56.50
74822;DHT22;63353;48.702;8.884;2023-07-09T11:35:49;38.50;58.40
74822;DHT22;63353;48.702;8.884;2023-07-09T11:38:21;38.80;57.10
74822;DHT22;63353;48.702;8.884;2023-07-09T11:40:52;39.30;57.60
74822;DHT22;63353;48.702;8.884;2023-07-09T11:43:47;39.30;57.50
74822;DHT22;63353;48.702;8.884;2023-07-09T11:46:18;38.80;56.70
74822;DHT22;63353;48.702;8.884;2023-07-09T11:48:44;38.70;54.10
74822;DHT22;63353;48.702;8.884;2023-07-09T11:51:18;38.30;56.90
74822;DHT22;63353;48.702;8.884;2023-07-09T11:53:49;37.30;55.60
74822;DHT22;63353;48.702;8.884;2023-07-09T11:56:18;37.00;57.90
74822;DHT22;63353;48.702;8.884;2023-07-09T11:58:52;37.50;57.80
74822;DHT22;63353;48.702;8.884;2023-07-09T12:01:22;37.60;57.00
74822;DHT22;63353;48.702;8.884;2023-07-09T12:03:48;38.00;56.30
74822;DHT22;63353;48.702;8.884;2023-07-09T12:06:26;38.30;57.20
74822;DHT22;63353;48.702;8.884;2023-07-09T12:08:53;38.70;56.40
74822;DHT22;63353;48.702;8.884;2023-07-09T12:11:28;38.30;57.80
74822;DHT22;63353;48.702;8.884;2023-07-09T12:13:54;38.70;56.40
74822;DHT22;63353;48.702;8.884;2023-07-09T12:16:34;39.00;56.80
74822;DHT22;63353;48.702;8.884;2023-07-09T12:19:00;38.70;54.50
74822;DHT22;63353;48.702;8.884;2023-07-09T12:21:26;39.30;55.70
74822;DHT22;63353;48.702;8.884;2023-07-09T12:23:55;39.50;53.60
74822;DHT22;63353;48.702;8.884;2023-07-09T12:26:22;39.60;54.30
74822;DHT22;63353;48.702;8.884;2023-07-09T12:28:54;39.80;51.80
74822;DHT22;63353;48.702;8.884;2023-07-09T12:31:28;39.50;53.60
74822;DHT22;63353;48.702;8.884;2023-07-09T12:33:58;39.70;53.20
74822;DHT22;63353;48.702;8.884;2023-07-09T12:36:25;39.70;52.20
74822;DHT22;63353;48.702;8.884;2023-07-09T12:38:59;39.60;49.90
74822;DHT22;63353;48.702;8.884;2023-07-09T12:41:35;39.00;50.90
74822;DHT22;63353;48.702;8.884;2023-07-09T12:44:02;38.80;48.50
74822;DHT22;63353;48.702;8.884;2023-07-09T12:46:28;39.00;49.00
74822;DHT22;63353;48.702;8.884;2023-07-09T12:48:55;39.40;49.40
74822;DHT22;63353;48.702;8.884;2023-07-09T12:51:25;39.20;50.40
74822;DHT22;63353;48.702;8.884;2023-07-09T12:54:05;39.50;49.30
74822;DHT22;63353;48.702;8.884;2023-07-09T12:56:35;38.60;47.30
74822;DHT22;63353;48.702;8.884;2023-07-09T12:59:03;38.60;46.30
74822;DHT22;63353;48.702;8.884;2023-07-09T13:01:35;39.30;47.10
74822;DHT22;63353;48.702;8.884;2023-07-09T13:04:01;38.20;45.30
74822;DHT22;63353;48.702;8.884;2023-07-09T13:06:35;38.50;47.30
74822;DHT22;63353;48.702;8.884;2023-07-09T13:09:01;39.40;49.70
74822;DHT22;63353;48.702;8.884;2023-07-09T13:11:35;39.10;47.70
74822;DHT22;63353;48.702;8.884;2023-07-09T13:14:11;38.50;46.30
74822;DHT22;63353;48.702;8.884;2023-07-09T13:16:39;38.50;47.00
74822;DHT22;63353;48.702;8.884;2023-07-09T13:19:05;38.50;46.40
74822;DHT22;63353;48.702;8.884;2023-07-09T13:21:31;39.30;48.20
74822;DHT22;63353;48.702;8.884;2023-07-09T13:23:58;40.10;46.70
74822;DHT22;63353;48.702;8.884;2023-07-09T13:26:24;39.50;43.50
74822;DHT22;63353;48.702;8.884;2023-07-09T13:28:50;39.90;47.30
74822;DHT22;63353;48.702;8.884;2023-07-09T13:31:20;40.80;44.90
74822;DHT22;63353;48.702;8.884;2023-07-09T13:33:58;40.00;44.20
74822;DHT22;63353;48.702;8.884;2023-07-09T13:36:24;39.30;44.50
74822;DHT22;63353;48.702;8.884;2023-07-09T13:38:50;39.30;45.40
74822;DHT22;63353;48.702;8.884;2023-07-09T13:41:18;40.00;45.60
74822;DHT22;63353;48.702;8.884;2023-07-09T13:43:48;40.60;46.20
74822;DHT22;63353;48.702;8.884;2023-07-09T13:46:14;40.30;43.80
74822;DHT22;63353;48.702;8.884;2023-07-09T13:48:42;40.80;49.20
74822;DHT22;63353;48.702;8.884;2023-07-09T13:51:18;42.00;44.30
74822;DHT22;63353;48.702;8.884;2023-07-09T13:53:45;42.50;46.80
74822;DHT22;63353;48.702;8.884;2023-07-09T13:56:11;43.10;47.50
74822;DHT22;63353;48.702;8.884;2023-07-09T13:58:37;43.00;46.60
74822;DHT22;63353;48.702;8.884;2023-07-09T14:01:24;42.70;46.30
74822;DHT22;63353;48.702;8.884;2023-07-09T14:03:50;42.90;46.80
74822;DHT22;63353;48.702;8.884;2023-07-09T14:06:17;42.70;47.30
74822;DHT22;63353;48.702;8.884;2023-07-09T14:08:43;42.50;46.00
74822;DHT22;63353;48.702;8.884;2023-07-09T14:11:17;42.50;47.90
74822;DHT22;63353;48.702;8.884;2023-07-09T14:13:44;42.80;46.50
74822;DHT22;63353;48.702;8.884;2023-07-09T14:16:11;42.30;44.80
74822;DHT22;63353;48.702;8.884;2023-07-09T14:18:43;42.40;44.80
74822;DHT22;63353;48.702;8.884;2023-07-09T14:21:14;42.70;46.70
74822;DHT22;63353;48.702;8.884;2023-07-09T14:23:43;43.10;47.20
74822;DHT22;63353;48.702;8.884;2023-07-09T14:26:12;43.50;44.30
74822;DHT22;63353;48.702;8.884;2023-07-09T14:28:37;43.30;46.50
74822;DHT22;63353;48.702;8.884;2023-07-09T14:31:27;43.80;46.20
74822;DHT22;63353;48.702;8.884;2023-07-09T14:33:53;44.20;45.30
74822;DHT22;63353;48.702;8.884;2023-07-09T14:36:19;44.60;44.10
74822;DHT22;63353;48.702;8.884;2023-07-09T14:38:44;44.90;45.20
74822;DHT22;63353;48.702;8.884;2023-07-09T14:41:21;44.70;44.90
74822;DHT22;63353;48.702;8.884;2023-07-09T14:43:48;44.40;41.80
74822;DHT22;63353;48.702;8.884;2023-07-09T14:46:13;44.60;43.40
74822;DHT22;63353;48.702;8.884;2023-07-09T14:48:39;44.80;42.20
74822;DHT22;63353;48.702;8.884;2023-07-09T14:51:13;45.40;41.70
74822;DHT22;63353;48.702;8.884;2023-07-09T14:53:40;46.60;41.50
74822;DHT22;63353;48.702;8.884;2023-07-09T14:56:05;47.30;41.10
74822;DHT22;63353;48.702;8.884;2023-07-09T14:58:31;46.30;38.60
74822;DHT22;63353;48.702;8.884;2023-07-09T15:01:00;44.90;40.20
74822;DHT22;63353;48.702;8.884;2023-07-09T15:03:26;45.00;39.90
74822;DHT22;63353;48.702;8.884;2023-07-09T15:05:53;46.10;39.40
74822;DHT22;63353;48.702;8.884;2023-07-09T15:08:24;46.60;39.00
74822;DHT22;63353;48.702;8.884;2023-07-09T15:10:52;46.50;38.90
74822;DHT22;63353;48.702;8.884;2023-07-09T15:13:25;45.60;39.50
74822;DHT22;63353;48.702;8.884;2023-07-09T15:15:52;44.50;39.10
74822;DHT22;63353;48.702;8.884;2023-07-09T15:18:18;43.90;40.80
74822;DHT22;63353;48.702;8.884;2023-07-09T15:20:51;43.40;41.40
74822;DHT22;63353;48.702;8.884;2023-07-09T15:23:18;42.90;40.20
74822;DHT22;63353;48.702;8.884;2023-07-09T15:25:50;42.20;41.40
74822;DHT22;63353;48.702;8.884;2023-07-09T15:28:19;41.70;42.40
74822;DHT22;63353;48.702;8.884;2023-07-09T15:30:46;41.40;43.00
74822;DHT22;63353;48.702;8.884;2023-07-09T15:33:17;40.30;42.20
74822;DHT22;63353;48.702;8.884;2023-07-09T15:35:44;39.50;44.50
74822;DHT22;63353;48.702;8.884;2023-07-09T15:38:29;39.10;44.40
74822;DHT22;63353;48.702;8.884;2023-07-09T15:40:56;38.40;44.90
74822;DHT22;63353;48.702;8.884;2023-07-09T15:43:22;38.10;45.90
74822;DHT22;63353;48.702;8.884;2023-07-09T15:45:50;37.90;46.80
74822;DHT22;63353;48.702;8.884;2023-07-09T15:48:26;37.70;47.90
74822;DHT22;63353;48.702;8.884;2023-07-09T15:50:51;37.40;46.70
74822;DHT22;63353;48.702;8.884;2023-07-09T15:53:20;37.10;48.50
74822;DHT22;63353;48.702;8.884;2023-07-09T15:55:46;37.00;48.90
74822;DHT22;63353;48.702;8.884;2023-07-09T15:58:18;36.80;48.70
74822;DHT22;63353;48.702;8.884;2023-07-09T16:00:45;36.60;48.50
74822;DHT22;63353;48.702;8.884;2023-07-09T16:03:20;36.40;49.40
74822;DHT22;63353;48.702;8.884;2023-07-09T16:05:45;36.20;48.40
74822;DHT22;63353;48.702;8.884;2023-07-09T16:08:11;35.80;48.90
74822;DHT22;63353;48.702;8.884;2023-07-09T16:10:37;35.50;49.00
74822;DHT22;63353;48.702;8.884;2023-07-09T16:13:03;35.40;49.70
74822;DHT22;63353;48.702;8.884;2023-07-09T16:15:29;35.20;50.90
74822;DHT22;63353;48.702;8.884;2023-07-09T16:17:55;34.90;49.90
74822;DHT22;63353;48.702;8.884;2023-07-09T16:20:28;34.70;52.80